Terminal Aerodrome Forecast
Issued by NWS Birmingham, AL

Home | Current Version | Previous Version | Text Only | Print | Product List | Glossary On
Versions: 1 2 3 4 5 6 7 8 9 10 11 12 13 14 15 16 17 18
000
FTUS44 KBMX 310500
TAFBHM
TAF
KBHM 310520Z 3106/0106 00000KT P6SM BKN200
     FM311000 20006KT P6SM BKN015
     FM311600 23008KT P6SM BKN050
     FM010100 01004KT P6SM SKC=

USA.gov is the U.S. government's official web portal to all federal, state and local government web resources and services.